sensor_id;sensor_type;location;lat;lon;timestamp;pressure;altitude;pressure_sealevel;temperature;humidity
7832;BME280;3961;42.058;25.586;2023-03-31T00:01:33;63306.16;;;9.70;74.75
7832;BME280;3961;42.058;25.586;2023-03-31T00:03:59;63266.34;;;9.35;75.30
7832;BME280;3961;42.058;25.586;2023-03-31T00:06:32;63292.97;;;9.54;73.20
7832;BME280;3961;42.058;25.586;2023-03-31T00:09:12;63291.81;;;9.53;72.81
7832;BME280;3961;42.058;25.586;2023-03-31T00:11:40;63296.09;;;9.59;72.17
7832;BME280;3961;42.058;25.586;2023-03-31T00:14:06;63294.38;;;9.58;71.43
7832;BME280;3961;42.058;25.586;2023-03-31T00:16:33;63277.31;;;9.45;71.35
7832;BME280;3961;42.058;25.586;2023-03-31T00:18:59;63257.00;;;9.20;71.35
7832;BME280;3961;42.058;25.586;2023-03-31T00:21:27;63254.56;;;9.23;71.08
7832;BME280;3961;42.058;25.586;2023-03-31T00:24:05;63245.34;;;9.15;70.94
7832;BME280;3961;42.058;25.586;2023-03-31T00:26:31;63243.97;;;9.11;70.89
7832;BME280;3961;42.058;25.586;2023-03-31T00:28:59;63213.66;;;8.87;70.50
7832;BME280;3961;42.058;25.586;2023-03-31T00:31:26;63176.75;;;8.54;70.76
7832;BME280;3961;42.058;25.586;2023-03-31T00:33:52;63193.16;;;8.71;70.69
7832;BME280;3961;42.058;25.586;2023-03-31T00:36:18;63201.19;;;8.78;70.32
7832;BME280;3961;42.058;25.586;2023-03-31T00:38:58;63186.56;;;8.63;69.62
7832;BME280;3961;42.058;25.586;2023-03-31T00:41:25;63190.03;;;8.66;69.28
7832;BME280;3961;42.058;25.586;2023-03-31T00:44:16;63206.16;;;8.80;69.03
7832;BME280;3961;42.058;25.586;2023-03-31T00:47:10;63213.06;;;8.86;68.95
7832;BME280;3961;42.058;25.586;2023-03-31T00:49:56;63212.84;;;8.84;69.49
7832;BME280;3961;42.058;25.586;2023-03-31T00:52:34;63200.41;;;8.75;69.32
7832;BME280;3961;42.058;25.586;2023-03-31T00:55:08;63191.19;;;8.67;70.18
7832;BME280;3961;42.058;25.586;2023-03-31T00:57:37;63215.72;;;8.86;70.24
7832;BME280;3961;42.058;25.586;2023-03-31T01:00:11;63210.41;;;8.86;69.60
7832;BME280;3961;42.058;25.586;2023-03-31T01:02:47;63206.63;;;8.85;69.66
7832;BME280;3961;42.058;25.586;2023-03-31T01:05:28;63211.09;;;8.82;70.07
7832;BME280;3961;42.058;25.586;2023-03-31T01:07:58;63169.84;;;8.48;71.06
7832;BME280;3961;42.058;25.586;2023-03-31T01:10:25;63198.69;;;8.73;70.29
7832;BME280;3961;42.058;25.586;2023-03-31T01:12:53;63167.31;;;8.44;69.66
7832;BME280;3961;42.058;25.586;2023-03-31T01:15:19;63167.19;;;8.48;69.71
7832;BME280;3961;42.058;25.586;2023-03-31T01:17:45;63155.22;;;8.33;70.40
7832;BME280;3961;42.058;25.586;2023-03-31T01:42:14;63092.44;;;7.78;73.34
7832;BME280;3961;42.058;25.586;2023-03-31T01:45:05;63094.38;;;7.82;74.59
7832;BME280;3961;42.058;25.586;2023-03-31T01:47:45;63088.41;;;7.74;74.83
7832;BME280;3961;42.058;25.586;2023-03-31T01:56:21;63079.09;;;7.70;75.74
7832;BME280;3961;42.058;25.586;2023-03-31T01:58:59;63065.94;;;7.54;76.49
7832;BME280;3961;42.058;25.586;2023-03-31T02:01:33;63059.50;;;7.53;76.01
7832;BME280;3961;42.058;25.586;2023-03-31T02:04:07;63060.19;;;7.49;75.96
7832;BME280;3961;42.058;25.586;2023-03-31T02:06:40;63066.19;;;7.57;75.97
7832;BME280;3961;42.058;25.586;2023-03-31T02:09:13;63042.00;;;7.35;75.80
7832;BME280;3961;42.058;25.586;2023-03-31T02:11:41;63061.34;;;7.50;76.68
7832;BME280;3961;42.058;25.586;2023-03-31T02:14:10;63061.81;;;7.55;76.42
7832;BME280;3961;42.058;25.586;2023-03-31T02:16:39;63064.44;;;7.55;75.94
7832;BME280;3961;42.058;25.586;2023-03-31T02:19:15;63048.00;;;7.43;76.55
7832;BME280;3961;42.058;25.586;2023-03-31T02:21:44;63049.16;;;7.44;75.86
7832;BME280;3961;42.058;25.586;2023-03-31T02:24:15;63050.06;;;7.43;75.70
7832;BME280;3961;42.058;25.586;2023-03-31T02:26:55;63049.50;;;7.42;76.36
7832;BME280;3961;42.058;25.586;2023-03-31T02:29:25;63051.31;;;7.39;76.00
7832;BME280;3961;42.058;25.586;2023-03-31T02:34:25;63062.47;;;7.51;75.45
7832;BME280;3961;42.058;25.586;2023-03-31T02:36:51;63074.56;;;7.62;75.22
7832;BME280;3961;42.058;25.586;2023-03-31T02:39:21;63065.94;;;7.54;75.34
7832;BME280;3961;42.058;25.586;2023-03-31T02:41:49;63054.69;;;7.47;74.89
7832;BME280;3961;42.058;25.586;2023-03-31T02:44:16;63055.47;;;7.50;75.05
7832;BME280;3961;42.058;25.586;2023-03-31T02:46:42;63065.50;;;7.61;73.72
7832;BME280;3961;42.058;25.586;2023-03-31T02:49:09;63049.50;;;7.42;74.08
7832;BME280;3961;42.058;25.586;2023-03-31T02:54:45;63083.47;;;7.72;73.77
7832;BME280;3961;42.058;25.586;2023-03-31T03:05:34;63083.78;;;7.70;72.97
7832;BME280;3961;42.058;25.586;2023-03-31T03:11:13;63088.63;;;7.77;73.67
7832;BME280;3961;42.058;25.586;2023-03-31T03:14:03;63080.34;;;7.67;75.22
7832;BME280;3961;42.058;25.586;2023-03-31T03:16:38;63061.66;;;7.48;75.78
7832;BME280;3961;42.058;25.586;2023-03-31T03:19:06;63070.78;;;7.61;75.88
7832;BME280;3961;42.058;25.586;2023-03-31T03:21:32;63078.03;;;7.65;76.33
7832;BME280;3961;42.058;25.586;2023-03-31T03:23:58;63062.25;;;7.49;78.90
7832;BME280;3961;42.058;25.586;2023-03-31T03:26:24;63024.75;;;7.20;79.83
7832;BME280;3961;42.058;25.586;2023-03-31T03:28:54;63058.44;;;7.48;79.19
7832;BME280;3961;42.058;25.586;2023-03-31T03:31:20;63051.91;;;7.39;79.82
7832;BME280;3961;42.058;25.586;2023-03-31T03:33:51;63029.34;;;7.24;80.43
7832;BME280;3961;42.058;25.586;2023-03-31T03:36:17;63024.16;;;7.20;80.95
7832;BME280;3961;42.058;25.586;2023-03-31T03:38:43;62975.31;;;6.77;80.94
7832;BME280;3961;42.058;25.586;2023-03-31T03:41:09;63046.97;;;7.37;80.73
7832;BME280;3961;42.058;25.586;2023-03-31T03:43:34;63000.03;;;6.98;81.98
7832;BME280;3961;42.058;25.586;2023-03-31T03:46:00;62988.50;;;6.88;81.03
7832;BME280;3961;42.058;25.586;2023-03-31T03:48:26;63034.88;;;7.27;80.02
7832;BME280;3961;42.058;25.586;2023-03-31T03:50:51;63045.81;;;7.36;78.85
7832;BME280;3961;42.058;25.586;2023-03-31T03:53:18;63036.50;;;7.33;78.46
7832;BME280;3961;42.058;25.586;2023-03-31T03:55:44;63046.63;;;7.39;77.69
7832;BME280;3961;42.058;25.586;2023-03-31T03:58:10;63052.97;;;7.45;77.49
7832;BME280;3961;42.058;25.586;2023-03-31T04:00:35;63048.69;;;7.39;77.50
7832;BME280;3961;42.058;25.586;2023-03-31T04:03:01;63044.31;;;7.37;77.75
7832;BME280;3961;42.058;25.586;2023-03-31T04:05:26;63068.47;;;7.59;74.87
7832;BME280;3961;42.058;25.586;2023-03-31T04:07:52;63087.00;;;7.70;75.55
7832;BME280;3961;42.058;25.586;2023-03-31T04:10:17;63053.75;;;7.48;75.77
7832;BME280;3961;42.058;25.586;2023-03-31T04:12:43;63050.66;;;7.43;76.92
7832;BME280;3961;42.058;25.586;2023-03-31T04:15:09;63075.41;;;7.65;77.42
7832;BME280;3961;42.058;25.586;2023-03-31T04:17:34;63067.00;;;7.60;77.88
7832;BME280;3961;42.058;25.586;2023-03-31T04:20:08;63088.31;;;7.79;75.26
7832;BME280;3961;42.058;25.586;2023-03-31T04:22:35;63061.00;;;7.52;76.19
7832;BME280;3961;42.058;25.586;2023-03-31T04:25:09;63091.16;;;7.81;73.64
7832;BME280;3961;42.058;25.586;2023-03-31T04:27:49;63076.31;;;7.63;73.40
7832;BME280;3961;42.058;25.586;2023-03-31T04:30:22;63052.38;;;7.45;73.70
7832;BME280;3961;42.058;25.586;2023-03-31T04:32:54;63067.09;;;7.55;74.54
7832;BME280;3961;42.058;25.586;2023-03-31T04:35:22;63078.84;;;7.68;75.16
7832;BME280;3961;42.058;25.586;2023-03-31T04:37:49;63090.38;;;7.78;75.31
7832;BME280;3961;42.058;25.586;2023-03-31T04:40:15;63106.38;;;7.97;74.11
7832;BME280;3961;42.058;25.586;2023-03-31T04:42:44;63097.84;;;7.85;74.43
7832;BME280;3961;42.058;25.586;2023-03-31T04:45:11;63109.94;;;7.95;75.32
7832;BME280;3961;42.058;25.586;2023-03-31T04:47:37;63103.34;;;7.87;73.44
7832;BME280;3961;42.058;25.586;2023-03-31T04:50:03;63069.88;;;7.62;74.53
7832;BME280;3961;42.058;25.586;2023-03-31T04:52:28;63103.84;;;7.92;73.17
7832;BME280;3961;42.058;25.586;2023-03-31T04:54:54;63124.09;;;8.05;72.31
7832;BME280;3961;42.058;25.586;2023-03-31T04:57:20;63136.41;;;8.19;70.46
7832;BME280;3961;42.058;25.586;2023-03-31T04:59:45;63135.34;;;8.13;70.13
7832;BME280;3961;42.058;25.586;2023-03-31T05:02:11;63119.47;;;8.01;70.82
7832;BME280;3961;42.058;25.586;2023-03-31T05:04:36;63146.56;;;8.25;69.56
7832;BME280;3961;42.058;25.586;2023-03-31T05:07:02;63139.28;;;8.21;70.20
7832;BME280;3961;42.058;25.586;2023-03-31T05:09:28;63135.25;;;8.18;71.24
7832;BME280;3961;42.058;25.586;2023-03-31T05:11:53;63122.94;;;8.04;71.80
7832;BME280;3961;42.058;25.586;2023-03-31T05:14:19;63095.28;;;7.80;72.95
7832;BME280;3961;42.058;25.586;2023-03-31T05:16:45;63063.88;;;7.55;73.83
7832;BME280;3961;42.058;25.586;2023-03-31T05:19:10;63048.94;;;7.41;74.50
7832;BME280;3961;42.058;25.586;2023-03-31T05:21:36;63075.06;;;7.67;76.15
7832;BME280;3961;42.058;25.586;2023-03-31T05:24:02;63091.84;;;7.77;76.75
7832;BME280;3961;42.058;25.586;2023-03-31T05:26:29;63079.66;;;7.71;76.03
7832;BME280;3961;42.058;25.586;2023-03-31T05:28:56;63125.25;;;8.06;74.68
7832;BME280;3961;42.058;25.586;2023-03-31T05:31:21;63108.78;;;7.94;73.96
7832;BME280;3961;42.058;25.586;2023-03-31T05:33:47;63134.09;;;8.17;74.68
7832;BME280;3961;42.058;25.586;2023-03-31T05:36:15;63145.31;;;8.29;75.82
7832;BME280;3961;42.058;25.586;2023-03-31T05:38:41;63158.91;;;8.38;74.76
7832;BME280;3961;42.058;25.586;2023-03-31T05:41:08;63172.16;;;8.50;73.53
7832;BME280;3961;42.058;25.586;2023-03-31T05:43:34;63172.03;;;8.43;74.60
7832;BME280;3961;42.058;25.586;2023-03-31T05:46:00;63164.09;;;8.43;75.38
7832;BME280;3961;42.058;25.586;2023-03-31T05:48:26;63177.91;;;8.55;75.38
7832;BME280;3961;42.058;25.586;2023-03-31T05:50:55;63174.22;;;8.50;72.83
7832;BME280;3961;42.058;25.586;2023-03-31T05:53:22;63175.38;;;8.51;70.32
7832;BME280;3961;42.058;25.586;2023-03-31T05:55:47;63174.47;;;8.52;72.17
7832;BME280;3961;42.058;25.586;2023-03-31T05:58:13;63164.69;;;8.44;71.57
7832;BME280;3961;42.058;25.586;2023-03-31T06:00:38;63189.78;;;8.63;70.20
7832;BME280;3961;42.058;25.586;2023-03-31T06:03:04;63184.03;;;8.58;69.76
7832;BME280;3961;42.058;25.586;2023-03-31T06:05:33;63202.72;;;8.77;69.58
7832;BME280;3961;42.058;25.586;2023-03-31T06:07:59;63163.88;;;8.40;68.91
7832;BME280;3961;42.058;25.586;2023-03-31T06:10:24;63214.78;;;8.88;69.56
7832;BME280;3961;42.058;25.586;2023-03-31T06:12:50;63284.81;;;9.52;67.86
7832;BME280;3961;42.058;25.586;2023-03-31T06:15:15;63325.75;;;9.88;65.17
7832;BME280;3961;42.058;25.586;2023-03-31T06:17:41;63429.47;;;10.76;61.77
7832;BME280;3961;42.058;25.586;2023-03-31T06:20:07;63380.72;;;10.31;61.62
7832;BME280;3961;42.058;25.586;2023-03-31T06:22:32;63373.22;;;10.25;61.77
7832;BME280;3961;42.058;25.586;2023-03-31T06:24:58;63350.69;;;10.05;62.77
7832;BME280;3961;42.058;25.586;2023-03-31T06:27:23;63369.75;;;10.22;62.77
7832;BME280;3961;42.058;25.586;2023-03-31T06:29:49;63359.00;;;10.15;62.94
7832;BME280;3961;42.058;25.586;2023-03-31T06:32:15;63368.34;;;10.18;63.28
7832;BME280;3961;42.058;25.586;2023-03-31T06:34:40;63384.78;;;10.35;62.50
7832;BME280;3961;42.058;25.586;2023-03-31T06:37:06;63393.31;;;10.47;62.53
7832;BME280;3961;42.058;25.586;2023-03-31T06:39:31;63357.84;;;10.14;61.66
7832;BME280;3961;42.058;25.586;2023-03-31T06:41:57;63449.69;;;10.94;63.55
7832;BME280;3961;42.058;25.586;2023-03-31T06:44:23;63734.03;;;13.46;54.51
7832;BME280;3961;42.058;25.586;2023-03-31T06:46:49;63607.91;;;12.31;52.91
7832;BME280;3961;42.058;25.586;2023-03-31T06:49:14;63560.94;;;11.94;54.74
7832;BME280;3961;42.058;25.586;2023-03-31T06:51:40;63554.34;;;11.86;54.98
7832;BME280;3961;42.058;25.586;2023-03-31T06:54:05;63541.13;;;11.70;57.11
7832;BME280;3961;42.058;25.586;2023-03-31T06:56:31;63515.56;;;11.52;56.20
7832;BME280;3961;42.058;25.586;2023-03-31T06:58:56;63720.25;;;13.29;54.95
7832;BME280;3961;42.058;25.586;2023-03-31T07:01:22;63750.97;;;13.56;52.81
7832;BME280;3961;42.058;25.586;2023-03-31T07:03:47;63739.03;;;13.48;53.76
7832;BME280;3961;42.058;25.586;2023-03-31T07:06:13;63814.03;;;14.16;54.23
7832;BME280;3961;42.058;25.586;2023-03-31T07:08:38;63858.47;;;14.53;53.37
7832;BME280;3961;42.058;25.586;2023-03-31T07:11:04;63877.03;;;14.69;47.98
7832;BME280;3961;42.058;25.586;2023-03-31T07:13:29;63807.53;;;14.03;47.11
7832;BME280;3961;42.058;25.586;2023-03-31T07:15:55;63758.84;;;13.61;48.75
7832;BME280;3961;42.058;25.586;2023-03-31T07:18:21;63739.59;;;13.49;49.61
7832;BME280;3961;42.058;25.586;2023-03-31T07:20:50;63681.31;;;13.00;50.97
7832;BME280;3961;42.058;25.586;2023-03-31T07:23:16;63639.16;;;12.58;50.42
7832;BME280;3961;42.058;25.586;2023-03-31T07:25:42;63631.63;;;12.52;51.08
7832;BME280;3961;42.058;25.586;2023-03-31T07:28:07;63580.38;;;12.09;50.13
7832;BME280;3961;42.058;25.586;2023-03-31T07:30:33;63605.59;;;12.29;49.87
7832;BME280;3961;42.058;25.586;2023-03-31T07:33:00;63576.06;;;12.03;49.90
7832;BME280;3961;42.058;25.586;2023-03-31T07:35:26;63577.94;;;12.00;50.44
7832;BME280;3961;42.058;25.586;2023-03-31T07:37:52;63551.22;;;11.81;51.33
7832;BME280;3961;42.058;25.586;2023-03-31T07:40:28;63514.06;;;11.53;52.25
7832;BME280;3961;42.058;25.586;2023-03-31T07:42:55;63542.44;;;11.78;52.67
7832;BME280;3961;42.058;25.586;2023-03-31T07:45:22;63555.50;;;11.87;51.47
7832;BME280;3961;42.058;25.586;2023-03-31T07:47:49;63566.03;;;11.92;52.56
7832;BME280;3961;42.058;25.586;2023-03-31T07:53:55;63565.09;;;11.93;52.05
7832;BME280;3961;42.058;25.586;2023-03-31T07:56:23;63568.22;;;11.98;52.76
7832;BME280;3961;42.058;25.586;2023-03-31T07:58:49;63588.81;;;12.14;52.19
7832;BME280;3961;42.058;25.586;2023-03-31T08:01:18;63591.94;;;12.19;50.22
7832;BME280;3961;42.058;25.586;2023-03-31T08:03:45;63588.56;;;12.11;50.79
7832;BME280;3961;42.058;25.586;2023-03-31T08:06:20;63572.28;;;12.02;50.41
7832;BME280;3961;42.058;25.586;2023-03-31T08:08:46;63595.41;;;12.22;48.88
7832;BME280;3961;42.058;25.586;2023-03-31T08:11:12;63583.03;;;12.09;48.95
7832;BME280;3961;42.058;25.586;2023-03-31T08:13:38;63578.97;;;12.05;49.22
7832;BME280;3961;42.058;25.586;2023-03-31T08:16:04;63611.38;;;12.34;48.45
7832;BME280;3961;42.058;25.586;2023-03-31T08:18:29;63635.94;;;12.58;48.02
7832;BME280;3961;42.058;25.586;2023-03-31T08:20:55;63659.66;;;12.78;47.42
7832;BME280;3961;42.058;25.586;2023-03-31T08:23:20;63695.91;;;13.08;46.58
7832;BME280;3961;42.058;25.586;2023-03-31T08:25:46;63722.59;;;13.31;46.57
7832;BME280;3961;42.058;25.586;2023-03-31T08:28:12;63739.47;;;13.41;46.23
7832;BME280;3961;42.058;25.586;2023-03-31T08:30:41;63785.16;;;13.86;45.44
7832;BME280;3961;42.058;25.586;2023-03-31T08:33:07;63790.03;;;13.93;45.18
7832;BME280;3961;42.058;25.586;2023-03-31T08:35:35;63768.34;;;13.71;45.36
7832;BME280;3961;42.058;25.586;2023-03-31T08:38:01;63830.03;;;14.28;44.10
7832;BME280;3961;42.058;25.586;2023-03-31T08:40:28;63829.47;;;14.27;43.69
7832;BME280;3961;42.058;25.586;2023-03-31T08:42:55;63877.94;;;14.67;43.65
7832;BME280;3961;42.058;25.586;2023-03-31T08:48:02;63938.31;;;15.20;42.89
7832;BME280;3961;42.058;25.586;2023-03-31T08:50:34;63892.69;;;14.83;42.98
7832;BME280;3961;42.058;25.586;2023-03-31T08:55:33;63945.28;;;15.26;42.71
7832;BME280;3961;42.058;25.586;2023-03-31T08:58:02;63898.50;;;14.88;43.11
7832;BME280;3961;42.058;25.586;2023-03-31T09:00:39;63917.41;;;15.02;43.59
7832;BME280;3961;42.058;25.586;2023-03-31T09:03:14;64011.28;;;15.82;42.15
7832;BME280;3961;42.058;25.586;2023-03-31T09:05:47;64062.63;;;16.29;41.77
7832;BME280;3961;42.058;25.586;2023-03-31T09:08:27;64145.56;;;16.99;40.28
7832;BME280;3961;42.058;25.586;2023-03-31T09:11:05;64144.50;;;17.05;39.61
7832;BME280;3961;42.058;25.586;2023-03-31T09:16:28;64176.84;;;17.31;42.75
7832;BME280;3961;42.058;25.586;2023-03-31T09:19:00;64226.13;;;17.71;41.44
7832;BME280;3961;42.058;25.586;2023-03-31T09:21:39;64211.53;;;17.59;42.30
7832;BME280;3961;42.058;25.586;2023-03-31T09:26:55;64265.13;;;18.05;42.50
7832;BME280;3961;42.058;25.586;2023-03-31T09:29:27;64273.06;;;18.10;43.11
7832;BME280;3961;42.058;25.586;2023-03-31T09:31:58;64317.56;;;18.51;42.16
7832;BME280;3961;42.058;25.586;2023-03-31T09:34:31;64306.84;;;18.39;41.75
7832;BME280;3961;42.058;25.586;2023-03-31T09:36:57;64321.03;;;18.54;42.23
7832;BME280;3961;42.058;25.586;2023-03-31T09:39:23;64344.72;;;18.72;42.54
7832;BME280;3961;42.058;25.586;2023-03-31T09:41:50;64330.97;;;18.63;42.40
7832;BME280;3961;42.058;25.586;2023-03-31T09:44:37;64324.88;;;18.55;42.32
7832;BME280;3961;42.058;25.586;2023-03-31T09:47:05;64267.81;;;18.05;43.27
7832;BME280;3961;42.058;25.586;2023-03-31T09:49:35;64221.81;;;17.65;44.58
7832;BME280;3961;42.058;25.586;2023-03-31T09:52:11;64236.03;;;17.80;44.65
7832;BME280;3961;42.058;25.586;2023-03-31T09:54:49;64334.81;;;18.64;44.15
7832;BME280;3961;42.058;25.586;2023-03-31T09:57:27;64297.75;;;18.34;43.79
7832;BME280;3961;42.058;25.586;2023-03-31T10:04:58;64342.63;;;18.73;44.41
7832;BME280;3961;42.058;25.586;2023-03-31T10:07:24;64380.88;;;19.04;43.41
7832;BME280;3961;42.058;25.586;2023-03-31T10:09:51;64394.50;;;19.18;42.70
7832;BME280;3961;42.058;25.586;2023-03-31T10:12:20;64485.88;;;19.95;42.07
7832;BME280;3961;42.058;25.586;2023-03-31T10:14:51;64473.59;;;19.85;41.83
7832;BME280;3961;42.058;25.586;2023-03-31T10:17:22;64496.00;;;20.06;41.36
7832;BME280;3961;42.058;25.586;2023-03-31T10:19:58;64456.13;;;19.69;41.26
7832;BME280;3961;42.058;25.586;2023-03-31T10:22:31;64474.41;;;19.88;41.00
7832;BME280;3961;42.058;25.586;2023-03-31T10:25:19;64438.84;;;19.57;41.38
7832;BME280;3961;42.058;25.586;2023-03-31T10:27:51;64510.38;;;20.17;40.57
7832;BME280;3961;42.058;25.586;2023-03-31T10:30:25;64473.00;;;19.84;40.87
7832;BME280;3961;42.058;25.586;2023-03-31T10:32:51;64408.84;;;19.28;41.36
7832;BME280;3961;42.058;25.586;2023-03-31T10:37:50;64457.72;;;19.75;41.57
7832;BME280;3961;42.058;25.586;2023-03-31T10:40:30;64433.91;;;19.50;41.42
7832;BME280;3961;42.058;25.586;2023-03-31T10:45:29;64535.50;;;20.38;40.54
7832;BME280;3961;42.058;25.586;2023-03-31T10:47:57;64559.88;;;20.64;40.01
7832;BME280;3961;42.058;25.586;2023-03-31T10:50:30;64559.28;;;20.64;40.81
7832;BME280;3961;42.058;25.586;2023-03-31T10:53:05;64632.69;;;21.25;38.91
7832;BME280;3961;42.058;25.586;2023-03-31T10:55:43;64634.22;;;21.24;38.05
7832;BME280;3961;42.058;25.586;2023-03-31T10:58:37;64608.72;;;21.04;39.71
7832;BME280;3961;42.058;25.586;2023-03-31T11:06:26;64536.53;;;20.44;38.42
7832;BME280;3961;42.058;25.586;2023-03-31T11:08:59;64548.19;;;20.54;39.99
7832;BME280;3961;42.058;25.586;2023-03-31T11:14:32;64602.88;;;20.99;38.86
7832;BME280;3961;42.058;25.586;2023-03-31T11:17:13;64622.50;;;21.14;39.17
7832;BME280;3961;42.058;25.586;2023-03-31T11:22:53;64726.22;;;22.06;39.24
7832;BME280;3961;42.058;25.586;2023-03-31T11:28:26;64747.50;;;22.27;38.09
7832;BME280;3961;42.058;25.586;2023-03-31T11:41:48;64681.19;;;21.67;38.67
7832;BME280;3961;42.058;25.586;2023-03-31T11:44:18;64703.16;;;21.84;38.93
7832;BME280;3961;42.058;25.586;2023-03-31T11:49:25;64694.47;;;21.84;38.55
7832;BME280;3961;42.058;25.586;2023-03-31T11:51:58;64688.56;;;21.71;38.75
7832;BME280;3961;42.058;25.586;2023-03-31T11:54:39;64643.91;;;21.30;39.07
7832;BME280;3961;42.058;25.586;2023-03-31T11:57:15;64601.47;;;20.96;39.33
7832;BME280;3961;42.058;25.586;2023-03-31T11:59:47;64650.22;;;21.40;38.29
7832;BME280;3961;42.058;25.586;2023-03-31T12:02:19;64685.88;;;21.71;38.04
7832;BME280;3961;42.058;25.586;2023-03-31T12:04:52;64699.06;;;21.80;37.59
7832;BME280;3961;42.058;25.586;2023-03-31T12:07:30;64641.66;;;21.35;38.91
7832;BME280;3961;42.058;25.586;2023-03-31T12:10:10;64661.44;;;21.45;39.08
7832;BME280;3961;42.058;25.586;2023-03-31T12:12:59;64674.91;;;21.57;39.03
7832;BME280;3961;42.058;25.586;2023-03-31T12:15:31;64657.78;;;21.47;39.13
7832;BME280;3961;42.058;25.586;2023-03-31T12:18:02;64637.34;;;21.29;39.46
7832;BME280;3961;42.058;25.586;2023-03-31T12:20:40;64615.72;;;21.10;39.65
7832;BME280;3961;42.058;25.586;2023-03-31T12:23:14;64612.81;;;21.08;39.70
7832;BME280;3961;42.058;25.586;2023-03-31T12:28:35;64674.75;;;21.62;38.67
7832;BME280;3961;42.058;25.586;2023-03-31T12:31:04;64673.59;;;21.61;38.73
7832;BME280;3961;42.058;25.586;2023-03-31T12:33:36;64677.09;;;21.64;39.17
7832;BME280;3961;42.058;25.586;2023-03-31T12:38:55;64747.28;;;22.25;38.12
7832;BME280;3961;42.058;25.586;2023-03-31T12:47:24;64791.38;;;22.65;37.70
7832;BME280;3961;42.058;25.586;2023-03-31T12:55:35;64824.09;;;22.87;35.15
7832;BME280;3961;42.058;25.586;2023-03-31T13:01:05;64783.75;;;22.59;35.61
7832;BME280;3961;42.058;25.586;2023-03-31T13:03:41;64787.41;;;22.57;35.54
7832;BME280;3961;42.058;25.586;2023-03-31T13:06:44;64771.84;;;22.46;36.00
7832;BME280;3961;42.058;25.586;2023-03-31T13:16:32;64846.34;;;23.06;36.46
7832;BME280;3961;42.058;25.586;2023-03-31T13:18:58;64816.31;;;22.85;35.59
7832;BME280;3961;42.058;25.586;2023-03-31T13:21:25;64827.59;;;22.90;36.04
7832;BME280;3961;42.058;25.586;2023-03-31T13:23:52;64818.09;;;22.86;36.38
7832;BME280;3961;42.058;25.586;2023-03-31T13:40:21;64919.59;;;23.76;35.77
7832;BME280;3961;42.058;25.586;2023-03-31T13:46:12;64914.72;;;23.70;33.74
7832;BME280;3961;42.058;25.586;2023-03-31T13:56:37;64860.22;;;23.23;34.49
7832;BME280;3961;42.058;25.586;2023-03-31T13:59:14;64892.09;;;23.53;34.90
7832;BME280;3961;42.058;25.586;2023-03-31T14:07:28;64863.75;;;23.26;35.03
7832;BME280;3961;42.058;25.586;2023-03-31T14:09:56;64836.47;;;23.04;35.42
7832;BME280;3961;42.058;25.586;2023-03-31T14:12:34;64827.59;;;22.90;35.15
7832;BME280;3961;42.058;25.586;2023-03-31T14:15:00;64798.53;;;22.67;35.50
7832;BME280;3961;42.058;25.586;2023-03-31T14:17:29;64835.44;;;22.99;35.31
7832;BME280;3961;42.058;25.586;2023-03-31T14:38:14;64758.75;;;22.32;36.26
7832;BME280;3961;42.058;25.586;2023-03-31T14:40:50;64742.38;;;22.18;36.78
7832;BME280;3961;42.058;25.586;2023-03-31T14:43:22;64738.13;;;22.19;36.40
7832;BME280;3961;42.058;25.586;2023-03-31T14:46:09;64739.44;;;22.16;35.94
7832;BME280;3961;42.058;25.586;2023-03-31T14:48:45;64706.91;;;21.90;36.63
7832;BME280;3961;42.058;25.586;2023-03-31T14:51:14;64697.19;;;21.84;36.64
7832;BME280;3961;42.058;25.586;2023-03-31T14:53:40;64701.88;;;21.88;36.82
7832;BME280;3961;42.058;25.586;2023-03-31T14:56:11;64685.66;;;21.69;37.15
7832;BME280;3961;42.058;25.586;2023-03-31T14:58:42;64650.22;;;21.40;37.32
7832;BME280;3961;42.058;25.586;2023-03-31T15:01:14;64651.63;;;21.44;37.29
7832;BME280;3961;42.058;25.586;2023-03-31T15:03:41;64641.81;;;21.31;37.82
7832;BME280;3961;42.058;25.586;2023-03-31T15:06:08;64628.59;;;21.22;38.47
7832;BME280;3961;42.058;25.586;2023-03-31T15:08:36;64626.00;;;21.17;38.86
7832;BME280;3961;42.058;25.586;2023-03-31T15:11:12;64614.19;;;21.11;39.58
7832;BME280;3961;42.058;25.586;2023-03-31T15:13:49;64622.50;;;21.14;40.14
7832;BME280;3961;42.058;25.586;2023-03-31T15:16:29;64614.34;;;21.07;40.45
7832;BME280;3961;42.058;25.586;2023-03-31T15:18:57;64606.38;;;21.02;41.14
7832;BME280;3961;42.058;25.586;2023-03-31T15:21:25;64568.88;;;20.74;41.57
7832;BME280;3961;42.058;25.586;2023-03-31T15:23:54;64540.00;;;20.47;42.51
7832;BME280;3961;42.058;25.586;2023-03-31T15:26:23;64570.53;;;20.69;42.42
7832;BME280;3961;42.058;25.586;2023-03-31T15:28:54;64555.34;;;20.56;42.30
7832;BME280;3961;42.058;25.586;2023-03-31T15:31:22;64543.09;;;20.45;42.73
7832;BME280;3961;42.058;25.586;2023-03-31T15:33:49;64526.72;;;20.31;43.22
7832;BME280;3961;42.058;25.586;2023-03-31T15:36:15;64498.13;;;20.06;43.45
7832;BME280;3961;42.058;25.586;2023-03-31T15:38:41;64496.38;;;20.04;43.30
7832;BME280;3961;42.058;25.586;2023-03-31T15:41:17;64471.84;;;19.83;43.01
7832;BME280;3961;42.058;25.586;2023-03-31T15:43:46;64475.81;;;19.91;43.01
7832;BME280;3961;42.058;25.586;2023-03-31T15:46:23;64495.78;;;20.04;43.39
7832;BME280;3961;42.058;25.586;2023-03-31T15:48:53;64482.94;;;19.93;43.70
7832;BME280;3961;42.058;25.586;2023-03-31T15:51:35;64479.66;;;19.92;43.60
7832;BME280;3961;42.058;25.586;2023-03-31T15:54:01;64483.53;;;19.93;43.59
7832;BME280;3961;42.058;25.586;2023-03-31T15:56:30;64473.38;;;19.82;43.33
7832;BME280;3961;42.058;25.586;2023-03-31T15:58:59;64470.91;;;19.85;44.20
7832;BME280;3961;42.058;25.586;2023-03-31T16:01:38;64451.66;;;19.68;44.96
7832;BME280;3961;42.058;25.586;2023-03-31T16:04:08;64445.03;;;19.60;45.28
7832;BME280;3961;42.058;25.586;2023-03-31T16:06:51;64432.19;;;19.49;45.60
7832;BME280;3961;42.058;25.586;2023-03-31T16:09:23;64412.34;;;19.31;45.94
7832;BME280;3961;42.058;25.586;2023-03-31T16:11:51;64385.53;;;19.08;46.32
7832;BME280;3961;42.058;25.586;2023-03-31T16:14:31;64402.56;;;19.18;46.37
7832;BME280;3961;42.058;25.586;2023-03-31T16:17:06;64381.09;;;19.06;46.77
7832;BME280;3961;42.058;25.586;2023-03-31T16:20:06;64371.75;;;18.98;47.32
7832;BME280;3961;42.058;25.586;2023-03-31T16:22:38;64338.53;;;18.69;47.48
7832;BME280;3961;42.058;25.586;2023-03-31T16:25:12;64325.69;;;18.58;48.10